WMT409 LOWW-LROP
Flight info
| Callsign | WMT409 |
|---|---|
| Flight time | 1h 14m |
| Altitude | 39000 |
| Route | ADAMA2C/29 ADAMA DCT VEDER DCT ALAMU DCT EPARI DCT OSLEN DCT TEGRI DCT NEKUL DCT LAMIT DCT TOSVI |
| Aircraft | A20N/M-SDE2E3FGHIRWXY/LB1 |
Departure
| Time | 2026-04-25 18:47 |
|---|---|
| Airport | Vienna International Airport (LOWW) |
Arrival
| Time | 2026-04-25 20:02 |
|---|---|
| Airport | Bucharest Henri Coandă International Airport (LROP) |
| Time | Latitude | Longitude | Altitude | Speed | Heading |
|---|---|---|---|---|---|
| 2026-04-25 18:33 | 48.11653 | 16.56949 | 602 ft | 0 kts | 25° |
| 2026-04-25 18:34 | 48.11612 | 16.56918 | 602 ft | 10 kts | 29° |
| 2026-04-25 18:35 | 48.11600 | 16.56904 | 602 ft | 0 kts | 75° |
| 2026-04-25 18:35 | 48.11598 | 16.56897 | 602 ft | 0 kts | 97° |
| 2026-04-25 18:39 | 48.11573 | 16.56930 | 602 ft | 8 kts | 171° |
| 2026-04-25 18:40 | 48.11512 | 16.56906 | 602 ft | 11 kts | 206° |
| 2026-04-25 18:40 | 48.11480 | 16.56882 | 602 ft | 0 kts | 206° |
| 2026-04-25 18:40 | 48.11467 | 16.56872 | 602 ft | 13 kts | 206° |
| 2026-04-25 18:41 | 48.11431 | 16.56846 | 602 ft | 3 kts | 206° |
| 2026-04-25 18:41 | 48.11416 | 16.56834 | 602 ft | 0 kts | 206° |
| 2026-04-25 18:41 | 48.11413 | 16.56833 | 602 ft | 3 kts | 206° |
| 2026-04-25 18:41 | 48.11362 | 16.56829 | 603 ft | 5 kts | 136° |
| 2026-04-25 18:42 | 48.11336 | 16.56889 | 617 ft | 8 kts | 118° |
| 2026-04-25 18:42 | 48.11327 | 16.56916 | 613 ft | 9 kts | 116° |
| 2026-04-25 18:42 | 48.11269 | 16.57097 | 616 ft | 15 kts | 115° |
| 2026-04-25 18:42 | 48.11240 | 16.57186 | 622 ft | 0 kts | 116° |
| 2026-04-25 18:43 | 48.11212 | 16.57268 | 615 ft | 14 kts | 117° |
| 2026-04-25 18:43 | 48.11155 | 16.57442 | 603 ft | 22 kts | 115° |
| 2026-04-25 18:43 | 48.11134 | 16.57503 | 603 ft | 0 kts | 127° |
| 2026-04-25 18:43 | 48.11092 | 16.57528 | 604 ft | 17 kts | 176° |
| 2026-04-25 18:44 | 48.11060 | 16.57514 | 612 ft | 0 kts | 207° |
| 2026-04-25 18:45 | 48.11022 | 16.57485 | 615 ft | 16 kts | 206° |
| 2026-04-25 18:45 | 48.10973 | 16.57369 | 615 ft | 1 kts | 292° |
| 2026-04-25 18:46 | 48.10998 | 16.57284 | 616 ft | 38 kts | 295° |
| 2026-04-25 18:46 | 48.11220 | 16.56587 | 611 ft | 107 kts | 296° |
| 2026-04-25 18:47 | 48.11625 | 16.55344 | 688 ft | 150 kts | 295° |
| 2026-04-25 18:47 | 48.12087 | 16.53903 | 1179 ft | 156 kts | 294° |
| 2026-04-25 18:47 | 48.12232 | 16.52309 | 1819 ft | 156 kts | 258° |
| 2026-04-25 18:47 | 48.11691 | 16.50927 | 2426 ft | 160 kts | 219° |
| 2026-04-25 18:48 | 48.10712 | 16.49971 | 2830 ft | 177 kts | 211° |
| 2026-04-25 18:48 | 48.09617 | 16.48980 | 3176 ft | 195 kts | 211° |
| 2026-04-25 18:48 | 48.08392 | 16.47902 | 3461 ft | 214 kts | 206° |
| 2026-04-25 18:48 | 48.06887 | 16.47361 | 3683 ft | 235 kts | 179° |
| 2026-04-25 18:49 | 48.05191 | 16.47651 | 3939 ft | 255 kts | 172° |
| 2026-04-25 18:49 | 48.03377 | 16.48028 | 4426 ft | 267 kts | 172° |
| 2026-04-25 18:49 | 48.01530 | 16.48398 | 5278 ft | 269 kts | 173° |
| 2026-04-25 18:49 | 47.99686 | 16.48753 | 6185 ft | 272 kts | 173° |
| 2026-04-25 18:50 | 47.97781 | 16.49188 | 7172 ft | 276 kts | 164° |
| 2026-04-25 18:50 | 47.96113 | 16.50535 | 8182 ft | 280 kts | 137° |
| 2026-04-25 18:50 | 47.94987 | 16.52901 | 9202 ft | 285 kts | 111° |
| 2026-04-25 18:50 | 47.94655 | 16.55821 | 10185 ft | 290 kts | 87° |
| 2026-04-25 18:51 | 47.94852 | 16.58903 | 10809 ft | 310 kts | 83° |
| 2026-04-25 18:51 | 47.94930 | 16.59993 | 10952 ft | 318 kts | 84° |
| 2026-04-25 18:51 | 47.95292 | 16.65756 | 11900 ft | 346 kts | 85° |
| 2026-04-25 18:51 | 47.95492 | 16.69360 | 12836 ft | 350 kts | 85° |
| 2026-04-25 18:52 | 47.95686 | 16.72997 | 13720 ft | 354 kts | 85° |
| 2026-04-25 18:52 | 47.95880 | 16.76680 | 14595 ft | 358 kts | 85° |
| 2026-04-25 18:52 | 47.96075 | 16.80406 | 15420 ft | 363 kts | 85° |
| 2026-04-25 18:52 | 47.96272 | 16.84180 | 16220 ft | 367 kts | 85° |
| 2026-04-25 18:53 | 47.96472 | 16.88020 | 16998 ft | 372 kts | 85° |
| 2026-04-25 18:53 | 47.96674 | 16.91898 | 17755 ft | 376 kts | 85° |
| 2026-04-25 18:53 | 47.96875 | 16.95810 | 18493 ft | 380 kts | 85° |
| 2026-04-25 18:53 | 47.97078 | 16.99769 | 19210 ft | 385 kts | 85° |
| 2026-04-25 18:54 | 47.97484 | 17.07758 | 20592 ft | 393 kts | 85° |
| 2026-04-25 18:54 | 47.97690 | 17.11842 | 21248 ft | 397 kts | 85° |
| 2026-04-25 18:54 | 47.97896 | 17.15967 | 21894 ft | 401 kts | 85° |
| 2026-04-25 18:55 | 47.98103 | 17.20137 | 22523 ft | 405 kts | 85° |
| 2026-04-25 18:55 | 47.98311 | 17.24349 | 23061 ft | 409 kts | 85° |
| 2026-04-25 18:55 | 47.98516 | 17.28598 | 23695 ft | 412 kts | 87° |
| 2026-04-25 18:55 | 47.98483 | 17.32888 | 24272 ft | 416 kts | 95° |
| 2026-04-25 18:56 | 47.98044 | 17.37169 | 24832 ft | 419 kts | 103° |
| 2026-04-25 18:56 | 47.97218 | 17.41354 | 25359 ft | 423 kts | 108° |
| 2026-04-25 18:56 | 47.96285 | 17.45541 | 25891 ft | 426 kts | 108° |
| 2026-04-25 18:56 | 47.95356 | 17.49764 | 26395 ft | 429 kts | 108° |
| 2026-04-25 18:57 | 47.94424 | 17.54013 | 26894 ft | 433 kts | 108° |
| 2026-04-25 18:57 | 47.93497 | 17.58237 | 27355 ft | 436 kts | 108° |
| 2026-04-25 18:57 | 47.92547 | 17.62550 | 27808 ft | 439 kts | 108° |
| 2026-04-25 18:57 | 47.92224 | 17.64013 | 27958 ft | 440 kts | 108° |
| 2026-04-25 18:58 | 47.90620 | 17.71259 | 28659 ft | 445 kts | 108° |
| 2026-04-25 18:58 | 47.88659 | 17.80083 | 29441 ft | 450 kts | 108° |
| 2026-04-25 18:58 | 47.87668 | 17.84528 | 29815 ft | 453 kts | 108° |
| 2026-04-25 18:59 | 47.85666 | 17.93479 | 30561 ft | 458 kts | 108° |
| 2026-04-25 18:59 | 47.83311 | 18.02340 | 31323 ft | 462 kts | 115° |
| 2026-04-25 19:00 | 47.81053 | 18.09539 | 32112 ft | 461 kts | 115° |
| 2026-04-25 19:00 | 47.79268 | 18.15249 | 32708 ft | 459 kts | 115° |
| 2026-04-25 19:01 | 47.77008 | 18.22463 | 33446 ft | 458 kts | 115° |
| 2026-04-25 19:01 | 47.75663 | 18.26749 | 33862 ft | 457 kts | 114° |
| 2026-04-25 19:01 | 47.74487 | 18.31130 | 34258 ft | 456 kts | 108° |
| 2026-04-25 19:01 | 47.73636 | 18.35669 | 34640 ft | 455 kts | 102° |
| 2026-04-25 19:02 | 47.72792 | 18.44729 | 35027 ft | 454 kts | 96° |
| 2026-04-25 19:02 | 47.72448 | 18.49392 | 35036 ft | 454 kts | 96° |
| 2026-04-25 19:03 | 47.71497 | 18.61796 | 35034 ft | 453 kts | 96° |
| 2026-04-25 19:03 | 47.70645 | 18.72691 | 35035 ft | 454 kts | 97° |
| 2026-04-25 19:04 | 47.69539 | 18.86629 | 35034 ft | 456 kts | 97° |
| 2026-04-25 19:05 | 47.68165 | 18.95696 | 35036 ft | 453 kts | 113° |
| 2026-04-25 19:05 | 47.64764 | 19.03534 | 35034 ft | 452 kts | 134° |
| 2026-04-25 19:06 | 47.60300 | 19.10114 | 35034 ft | 452 kts | 135° |
| 2026-04-25 19:06 | 47.53600 | 19.19999 | 35285 ft | 461 kts | 139° |
| 2026-04-25 19:07 | 47.48904 | 19.26902 | 35002 ft | 486 kts | 139° |
| 2026-04-25 19:07 | 47.46479 | 19.30452 | 35000 ft | 494 kts | 139° |
| 2026-04-25 19:08 | 47.39155 | 19.41156 | 34998 ft | 493 kts | 139° |
| 2026-04-25 19:09 | 47.30246 | 19.54102 | 34986 ft | 492 kts | 139° |
| 2026-04-25 19:10 | 47.22094 | 19.65889 | 34982 ft | 492 kts | 139° |
| 2026-04-25 19:10 | 47.17203 | 19.72935 | 34984 ft | 492 kts | 139° |
| 2026-04-25 19:11 | 47.12307 | 19.79970 | 34991 ft | 492 kts | 139° |
| 2026-04-25 19:11 | 47.07412 | 19.86985 | 34996 ft | 492 kts | 139° |
| 2026-04-25 19:12 | 47.02518 | 19.93980 | 34993 ft | 492 kts | 139° |
| 2026-04-25 19:12 | 46.97615 | 20.00968 | 34994 ft | 492 kts | 139° |
| 2026-04-25 19:13 | 46.92708 | 20.07944 | 34977 ft | 492 kts | 139° |
| 2026-04-25 19:13 | 46.87827 | 20.14865 | 34980 ft | 492 kts | 139° |
| 2026-04-25 19:14 | 46.82907 | 20.21822 | 34977 ft | 492 kts | 139° |
| 2026-04-25 19:14 | 46.77986 | 20.28763 | 34979 ft | 492 kts | 139° |
| 2026-04-25 19:15 | 46.73064 | 20.35690 | 34981 ft | 491 kts | 139° |
| 2026-04-25 19:15 | 46.68428 | 20.43056 | 34983 ft | 493 kts | 134° |
| 2026-04-25 19:16 | 46.63842 | 20.50503 | 34985 ft | 493 kts | 135° |
| 2026-04-25 19:16 | 46.59279 | 20.57867 | 34991 ft | 493 kts | 135° |
| 2026-04-25 19:17 | 46.54677 | 20.65262 | 34990 ft | 493 kts | 135° |
| 2026-04-25 19:17 | 46.50062 | 20.72655 | 34992 ft | 493 kts | 135° |
| 2026-04-25 19:18 | 46.45445 | 20.80032 | 34997 ft | 493 kts | 135° |
| 2026-04-25 19:18 | 46.40824 | 20.87397 | 34994 ft | 493 kts | 135° |
| 2026-04-25 19:19 | 46.36235 | 20.94689 | 34998 ft | 493 kts | 135° |
| 2026-04-25 19:19 | 46.31610 | 21.02019 | 35000 ft | 493 kts | 135° |
| 2026-04-25 19:20 | 46.26987 | 21.09339 | 34998 ft | 493 kts | 133° |
| 2026-04-25 19:20 | 46.22879 | 21.17323 | 35001 ft | 495 kts | 127° |
| 2026-04-25 19:21 | 46.18903 | 21.25441 | 35004 ft | 495 kts | 127° |
| 2026-04-25 19:21 | 46.12915 | 21.37578 | 35001 ft | 494 kts | 127° |
| 2026-04-25 19:22 | 46.08921 | 21.45637 | 35001 ft | 494 kts | 127° |
| 2026-04-25 19:23 | 46.02943 | 21.57655 | 35010 ft | 494 kts | 127° |
| 2026-04-25 19:23 | 45.97113 | 21.69325 | 35014 ft | 493 kts | 127° |
| 2026-04-25 19:24 | 45.93102 | 21.77329 | 35020 ft | 493 kts | 127° |
| 2026-04-25 19:25 | 45.85055 | 21.93313 | 35023 ft | 493 kts | 127° |
| 2026-04-25 19:25 | 45.81061 | 22.01214 | 35026 ft | 493 kts | 127° |
| 2026-04-25 19:26 | 45.77030 | 22.09166 | 35030 ft | 492 kts | 127° |
| 2026-04-25 19:26 | 45.72999 | 22.17094 | 35038 ft | 492 kts | 127° |
| 2026-04-25 19:27 | 45.69622 | 22.23720 | 35038 ft | 492 kts | 127° |
| 2026-04-25 19:27 | 45.64926 | 22.32907 | 35042 ft | 491 kts | 127° |
| 2026-04-25 19:28 | 45.60882 | 22.40797 | 35047 ft | 492 kts | 127° |
| 2026-04-25 19:28 | 45.56831 | 22.48677 | 35061 ft | 491 kts | 127° |
| 2026-04-25 19:29 | 45.52780 | 22.56536 | 35060 ft | 491 kts | 127° |
| 2026-04-25 19:29 | 45.48755 | 22.64323 | 35053 ft | 491 kts | 127° |
| 2026-04-25 19:30 | 45.44699 | 22.72142 | 35068 ft | 490 kts | 127° |
| 2026-04-25 19:30 | 45.40638 | 22.79950 | 35062 ft | 490 kts | 127° |
| 2026-04-25 19:31 | 45.38058 | 22.84901 | 35053 ft | 490 kts | 127° |
| 2026-04-25 19:31 | 45.37579 | 22.85819 | 35060 ft | 489 kts | 127° |
| 2026-04-25 19:32 | 45.33518 | 22.93592 | 35047 ft | 489 kts | 127° |
| 2026-04-25 19:32 | 45.30801 | 22.98780 | 35054 ft | 489 kts | 127° |
| 2026-04-25 19:33 | 45.25376 | 23.09112 | 35052 ft | 489 kts | 127° |
| 2026-04-25 19:33 | 45.21328 | 23.16797 | 35049 ft | 489 kts | 127° |
| 2026-04-25 19:34 | 45.17249 | 23.24518 | 35043 ft | 488 kts | 127° |
| 2026-04-25 19:34 | 45.13180 | 23.32239 | 35033 ft | 489 kts | 125° |
| 2026-04-25 19:35 | 45.09966 | 23.40677 | 35033 ft | 488 kts | 110° |
| 2026-04-25 19:35 | 45.08044 | 23.49862 | 35030 ft | 486 kts | 103° |
| 2026-04-25 19:36 | 45.06316 | 23.59115 | 35032 ft | 486 kts | 103° |
| 2026-04-25 19:36 | 45.04577 | 23.68299 | 35026 ft | 486 kts | 103° |
| 2026-04-25 19:37 | 45.02821 | 23.77513 | 35026 ft | 486 kts | 103° |
| 2026-04-25 19:37 | 45.01057 | 23.86730 | 35024 ft | 486 kts | 103° |
| 2026-04-25 19:38 | 44.99284 | 23.95948 | 35003 ft | 485 kts | 103° |
| 2026-04-25 19:38 | 44.98396 | 24.00550 | 34706 ft | 485 kts | 103° |
| 2026-04-25 19:38 | 44.97507 | 24.05146 | 34045 ft | 487 kts | 104° |
| 2026-04-25 19:39 | 44.96609 | 24.09778 | 33097 ft | 491 kts | 104° |
| 2026-04-25 19:39 | 44.95702 | 24.14454 | 32089 ft | 494 kts | 104° |
| 2026-04-25 19:39 | 44.94799 | 24.19092 | 31072 ft | 498 kts | 104° |
| 2026-04-25 19:39 | 44.93879 | 24.23810 | 30080 ft | 499 kts | 105° |
| 2026-04-25 19:40 | 44.92955 | 24.28532 | 29084 ft | 499 kts | 105° |
| 2026-04-25 19:40 | 44.92033 | 24.33224 | 28476 ft | 490 kts | 105° |
| 2026-04-25 19:40 | 44.91133 | 24.37791 | 27987 ft | 479 kts | 105° |
| 2026-04-25 19:40 | 44.90247 | 24.42284 | 27381 ft | 472 kts | 104° |
| 2026-04-25 19:41 | 44.89372 | 24.46706 | 26786 ft | 465 kts | 104° |
| 2026-04-25 19:41 | 44.88507 | 24.51070 | 26202 ft | 459 kts | 104° |
| 2026-04-25 19:41 | 44.87653 | 24.55372 | 25613 ft | 453 kts | 104° |
| 2026-04-25 19:41 | 44.87366 | 24.56815 | 25419 ft | 451 kts | 104° |
| 2026-04-25 19:42 | 44.85969 | 24.63829 | 24425 ft | 444 kts | 104° |
| 2026-04-25 19:42 | 44.85136 | 24.67995 | 23873 ft | 439 kts | 104° |
| 2026-04-25 19:42 | 44.84310 | 24.72122 | 23264 ft | 435 kts | 104° |
| 2026-04-25 19:42 | 44.83494 | 24.76188 | 22698 ft | 428 kts | 104° |
| 2026-04-25 19:43 | 44.82688 | 24.80199 | 22136 ft | 422 kts | 104° |
| 2026-04-25 19:43 | 44.81891 | 24.84154 | 21584 ft | 417 kts | 104° |
| 2026-04-25 19:43 | 44.81104 | 24.88056 | 21038 ft | 412 kts | 104° |
| 2026-04-25 19:43 | 44.80323 | 24.91916 | 20491 ft | 408 kts | 104° |
| 2026-04-25 19:44 | 44.79550 | 24.95730 | 19950 ft | 404 kts | 105° |
| 2026-04-25 19:44 | 44.78781 | 24.99520 | 19410 ft | 400 kts | 105° |
| 2026-04-25 19:44 | 44.78028 | 25.03223 | 18881 ft | 397 kts | 105° |
| 2026-04-25 19:44 | 44.77515 | 25.05740 | 18487 ft | 396 kts | 105° |
| 2026-04-25 19:45 | 44.76522 | 25.10649 | 17783 ft | 390 kts | 103° |
| 2026-04-25 19:45 | 44.76367 | 25.11673 | 17666 ft | 388 kts | 98° |
| 2026-04-25 19:46 | 44.76144 | 25.14231 | 17484 ft | 393 kts | 93° |
| 2026-04-25 19:46 | 44.75973 | 25.18100 | 17220 ft | 396 kts | 91° |
| 2026-04-25 19:46 | 44.75838 | 25.21954 | 16948 ft | 392 kts | 91° |
| 2026-04-25 19:46 | 44.75679 | 25.25776 | 16714 ft | 390 kts | 92° |
| 2026-04-25 19:47 | 44.75490 | 25.29573 | 16454 ft | 389 kts | 93° |
| 2026-04-25 19:47 | 44.75280 | 25.33355 | 16199 ft | 387 kts | 93° |
| 2026-04-25 19:47 | 44.75031 | 25.37123 | 15957 ft | 386 kts | 94° |
| 2026-04-25 19:47 | 44.74819 | 25.40875 | 15706 ft | 384 kts | 92° |
| 2026-04-25 19:48 | 44.74648 | 25.44615 | 15458 ft | 382 kts | 92° |
| 2026-04-25 19:48 | 44.74468 | 25.48296 | 15218 ft | 381 kts | 92° |
| 2026-04-25 19:48 | 44.74264 | 25.52002 | 14976 ft | 379 kts | 93° |
| 2026-04-25 19:48 | 44.74045 | 25.55685 | 14735 ft | 377 kts | 94° |
| 2026-04-25 19:49 | 44.73816 | 25.59369 | 14499 ft | 376 kts | 94° |
| 2026-04-25 19:49 | 44.73663 | 25.61797 | 14340 ft | 375 kts | 94° |
| 2026-04-25 19:49 | 44.73353 | 25.66668 | 14020 ft | 373 kts | 94° |
| 2026-04-25 19:49 | 44.73121 | 25.70286 | 13786 ft | 371 kts | 94° |
| 2026-04-25 19:50 | 44.72656 | 25.77484 | 13276 ft | 367 kts | 94° |
| 2026-04-25 19:50 | 44.72428 | 25.80999 | 13013 ft | 365 kts | 94° |
| 2026-04-25 19:50 | 44.72197 | 25.84556 | 12563 ft | 365 kts | 94° |
| 2026-04-25 19:51 | 44.71964 | 25.88119 | 11805 ft | 367 kts | 94° |
| 2026-04-25 19:51 | 44.71727 | 25.91736 | 10773 ft | 376 kts | 94° |
| 2026-04-25 19:51 | 44.71483 | 25.95451 | 9663 ft | 382 kts | 94° |
| 2026-04-25 19:51 | 44.71238 | 25.99123 | 8960 ft | 367 kts | 94° |
| 2026-04-25 19:52 | 44.71005 | 26.02590 | 8683 ft | 343 kts | 94° |
| 2026-04-25 19:52 | 44.70789 | 26.05782 | 8447 ft | 321 kts | 94° |
| 2026-04-25 19:52 | 44.70583 | 26.08814 | 8212 ft | 302 kts | 94° |
| 2026-04-25 19:52 | 44.70390 | 26.11664 | 7938 ft | 287 kts | 94° |
| 2026-04-25 19:53 | 44.70202 | 26.14436 | 7405 ft | 282 kts | 94° |
| 2026-04-25 19:53 | 44.70016 | 26.17179 | 6862 ft | 280 kts | 94° |
| 2026-04-25 19:53 | 44.69832 | 26.19893 | 6370 ft | 279 kts | 94° |
| 2026-04-25 19:53 | 44.69647 | 26.22594 | 5976 ft | 277 kts | 94° |
| 2026-04-25 19:54 | 44.69461 | 26.25288 | 5554 ft | 277 kts | 94° |
| 2026-04-25 19:54 | 44.69276 | 26.27973 | 5271 ft | 275 kts | 95° |
| 2026-04-25 19:54 | 44.69090 | 26.30652 | 4967 ft | 274 kts | 95° |
| 2026-04-25 19:54 | 44.68968 | 26.32415 | 4594 ft | 274 kts | 95° |
| 2026-04-25 19:55 | 44.68724 | 26.35932 | 4148 ft | 260 kts | 95° |
| 2026-04-25 19:55 | 44.68552 | 26.38377 | 3994 ft | 243 kts | 95° |
| 2026-04-25 19:55 | 44.68435 | 26.40671 | 3784 ft | 229 kts | 91° |
| 2026-04-25 19:55 | 44.68074 | 26.42816 | 3338 ft | 227 kts | 122° |
| 2026-04-25 19:56 | 44.66997 | 26.44329 | 2891 ft | 221 kts | 155° |
| 2026-04-25 19:56 | 44.65527 | 26.44783 | 2556 ft | 224 kts | 188° |
| 2026-04-25 19:56 | 44.63994 | 26.44105 | 2477 ft | 233 kts | 208° |
| 2026-04-25 19:56 | 44.62534 | 26.43109 | 2460 ft | 233 kts | 208° |
| 2026-04-25 19:57 | 44.61089 | 26.42043 | 2461 ft | 235 kts | 219° |
| 2026-04-25 19:57 | 44.60115 | 26.40286 | 2472 ft | 228 kts | 252° |
| 2026-04-25 19:57 | 44.59821 | 26.38104 | 2464 ft | 228 kts | 265° |
| 2026-04-25 19:57 | 44.59699 | 26.35935 | 2459 ft | 215 kts | 266° |
| 2026-04-25 19:58 | 44.59579 | 26.33926 | 2461 ft | 201 kts | 265° |
| 2026-04-25 19:58 | 44.59434 | 26.31933 | 2461 ft | 205 kts | 264° |
| 2026-04-25 19:58 | 44.59292 | 26.30040 | 2459 ft | 190 kts | 264° |
| 2026-04-25 19:58 | 44.59158 | 26.28259 | 2450 ft | 177 kts | 264° |
| 2026-04-25 19:59 | 44.59030 | 26.26551 | 2332 ft | 175 kts | 264° |
| 2026-04-25 19:59 | 44.58903 | 26.24871 | 2046 ft | 171 kts | 264° |
| 2026-04-25 19:59 | 44.58781 | 26.23249 | 1799 ft | 160 kts | 264° |
| 2026-04-25 19:59 | 44.58669 | 26.21768 | 1606 ft | 153 kts | 264° |
| 2026-04-25 20:00 | 44.58558 | 26.20290 | 1388 ft | 153 kts | 264° |
| 2026-04-25 20:00 | 44.58482 | 26.19278 | 1244 ft | 155 kts | 264° |
| 2026-04-25 20:00 | 44.58341 | 26.17400 | 980 ft | 136 kts | 263° |
| 2026-04-25 20:00 | 44.58246 | 26.16141 | 808 ft | 127 kts | 262° |
| 2026-04-25 20:01 | 44.58060 | 26.13591 | 468 ft | 131 kts | 262° |
| 2026-04-25 20:01 | 44.57956 | 26.12328 | 318 ft | 128 kts | 262° |
| 2026-04-25 20:01 | 44.57872 | 26.11223 | 315 ft | 98 kts | 263° |
| 2026-04-25 20:02 | 44.57820 | 26.10527 | 318 ft | 52 kts | 264° |
| 2026-04-25 20:02 | 44.57776 | 26.10133 | 321 ft | 33 kts | 250° |
| 2026-04-25 20:02 | 44.57667 | 26.09871 | 319 ft | 27 kts | 234° |
| 2026-04-25 20:02 | 44.57641 | 26.09821 | 319 ft | 0 kts | 234° |
| 2026-04-25 20:03 | 44.57640 | 26.09820 | 319 ft | 2 kts | 227° |
| 2026-04-25 20:03 | 44.57595 | 26.09814 | 318 ft | 4 kts | 151° |
| 2026-04-25 20:03 | 44.57548 | 26.09831 | 319 ft | 10 kts | 173° |
| 2026-04-25 20:04 | 44.57468 | 26.09843 | 319 ft | 14 kts | 174° |
| 2026-04-25 20:04 | 44.57361 | 26.09857 | 319 ft | 17 kts | 175° |
| 2026-04-25 20:04 | 44.57234 | 26.09875 | 318 ft | 20 kts | 173° |
| 2026-04-25 20:04 | 44.57125 | 26.09892 | 318 ft | 9 kts | 174° |
| 2026-04-25 20:05 | 44.57063 | 26.09899 | 318 ft | 8 kts | 182° |
| 2026-04-25 20:05 | 44.57021 | 26.09865 | 317 ft | 6 kts | 241° |
| 2026-04-25 20:05 | 44.57011 | 26.09814 | 318 ft | 5 kts | 257° |
| 2026-04-25 20:05 | 44.57009 | 26.09771 | 318 ft | 4 kts | 265° |
| 2026-04-25 20:06 | 44.57007 | 26.09737 | 318 ft | 3 kts | 265° |
| 2026-04-25 20:06 | 44.57005 | 26.09710 | 317 ft | 2 kts | 265° |
| 2026-04-25 20:06 | 44.57004 | 26.09691 | 318 ft | 2 kts | 265° |
| 2026-04-25 20:06 | 44.57003 | 26.09679 | 318 ft | 1 kts | 265° |
| 2026-04-25 20:07 | 44.57003 | 26.09665 | 318 ft | 1 kts | 265° |
| 2026-04-25 20:07 | 44.57002 | 26.09651 | 318 ft | 1 kts | 263° |
| 2026-04-25 20:07 | 44.57001 | 26.09640 | 318 ft | 1 kts | 263° |
| 2026-04-25 20:07 | 44.57000 | 26.09630 | 318 ft | 3 kts | 263° |
| 2026-04-25 20:08 | 44.56994 | 26.09557 | 318 ft | 9 kts | 263° |
| 2026-04-25 20:08 | 44.56992 | 26.09542 | 318 ft | 1 kts | 263° |
| 2026-04-25 20:08 | 44.56988 | 26.09523 | 317 ft | 2 kts | 238° |
| 2026-04-25 20:08 | 44.56986 | 26.09517 | 317 ft | 0 kts | 243° |
| 2026-04-25 20:09 | 44.56983 | 26.09517 | 318 ft | 0 kts | 205° |
| 2026-04-25 20:09 | 44.56979 | 26.09518 | 318 ft | 0 kts | 183° |
| 2026-04-25 20:09 | 44.56974 | 26.09519 | 318 ft | 2 kts | 175° |
| 2026-04-25 20:10 | 44.56949 | 26.09522 | 318 ft | 6 kts | 174° |
| 2026-04-25 20:10 | 44.56907 | 26.09529 | 318 ft | 0 kts | 174° |